sensor_id;sensor_type;location;lat;lon;timestamp;P1;durP1;ratioP1;P2;durP2;ratioP2
64667;SDS011;51077;42.716;23.344;2024-01-07T00:02:12;28.20;;;16.47;;
64667;SDS011;51077;42.716;23.344;2024-01-07T00:04:37;27.30;;;17.17;;
64667;SDS011;51077;42.716;23.344;2024-01-07T00:07:03;32.27;;;17.03;;
64667;SDS011;51077;42.716;23.344;2024-01-07T00:09:29;28.58;;;16.73;;
64667;SDS011;51077;42.716;23.344;2024-01-07T00:11:55;26.90;;;17.17;;
64667;SDS011;51077;42.716;23.344;2024-01-07T00:14:20;28.47;;;18.40;;
64667;SDS011;51077;42.716;23.344;2024-01-07T00:16:45;28.40;;;17.80;;
64667;SDS011;51077;42.716;23.344;2024-01-07T00:19:11;28.80;;;17.10;;
64667;SDS011;51077;42.716;23.344;2024-01-07T00:21:36;25.27;;;15.47;;
64667;SDS011;51077;42.716;23.344;2024-01-07T00:24:02;25.83;;;16.50;;
64667;SDS011;51077;42.716;23.344;2024-01-07T00:26:27;27.70;;;16.53;;
64667;SDS011;51077;42.716;23.344;2024-01-07T00:28:53;28.47;;;16.93;;
64667;SDS011;51077;42.716;23.344;2024-01-07T00:31:18;23.23;;;15.83;;
64667;SDS011;51077;42.716;23.344;2024-01-07T00:33:43;24.73;;;15.60;;
64667;SDS011;51077;42.716;23.344;2024-01-07T00:36:09;27.47;;;15.23;;
64667;SDS011;51077;42.716;23.344;2024-01-07T00:38:34;22.57;;;15.73;;
64667;SDS011;51077;42.716;23.344;2024-01-07T00:40:59;25.17;;;15.77;;
64667;SDS011;51077;42.716;23.344;2024-01-07T00:43:25;27.93;;;15.87;;
64667;SDS011;51077;42.716;23.344;2024-01-07T00:45:50;24.73;;;15.07;;
64667;SDS011;51077;42.716;23.344;2024-01-07T00:48:16;25.13;;;15.17;;
64667;SDS011;51077;42.716;23.344;2024-01-07T00:50:41;23.27;;;14.93;;
64667;SDS011;51077;42.716;23.344;2024-01-07T00:53:07;24.88;;;14.70;;
64667;SDS011;51077;42.716;23.344;2024-01-07T00:55:33;24.57;;;15.27;;
64667;SDS011;51077;42.716;23.344;2024-01-07T00:58:00;21.05;;;14.30;;
64667;SDS011;51077;42.716;23.344;2024-01-07T01:00:26;24.95;;;14.57;;
64667;SDS011;51077;42.716;23.344;2024-01-07T01:02:52;24.48;;;15.35;;
64667;SDS011;51077;42.716;23.344;2024-01-07T01:05:17;24.30;;;14.60;;
64667;SDS011;51077;42.716;23.344;2024-01-07T01:07:43;22.47;;;13.77;;
64667;SDS011;51077;42.716;23.344;2024-01-07T01:10:08;19.50;;;13.63;;
64667;SDS011;51077;42.716;23.344;2024-01-07T01:12:34;21.90;;;13.77;;
64667;SDS011;51077;42.716;23.344;2024-01-07T01:15:00;23.53;;;13.63;;
64667;SDS011;51077;42.716;23.344;2024-01-07T01:17:25;24.70;;;15.27;;
64667;SDS011;51077;42.716;23.344;2024-01-07T01:19:50;26.60;;;13.90;;
64667;SDS011;51077;42.716;23.344;2024-01-07T01:22:16;22.13;;;14.33;;
64667;SDS011;51077;42.716;23.344;2024-01-07T01:24:41;22.90;;;13.60;;
64667;SDS011;51077;42.716;23.344;2024-01-07T01:27:09;22.98;;;13.40;;
64667;SDS011;51077;42.716;23.344;2024-01-07T01:29:35;20.08;;;12.52;;
64667;SDS011;51077;42.716;23.344;2024-01-07T01:32:01;22.67;;;12.93;;
64667;SDS011;51077;42.716;23.344;2024-01-07T01:34:26;19.63;;;12.63;;
64667;SDS011;51077;42.716;23.344;2024-01-07T01:36:52;22.07;;;13.07;;
64667;SDS011;51077;42.716;23.344;2024-01-07T01:39:17;20.70;;;13.10;;
64667;SDS011;51077;42.716;23.344;2024-01-07T01:41:43;20.70;;;12.50;;
64667;SDS011;51077;42.716;23.344;2024-01-07T01:44:09;20.83;;;12.82;;
64667;SDS011;51077;42.716;23.344;2024-01-07T01:46:34;21.73;;;13.50;;
64667;SDS011;51077;42.716;23.344;2024-01-07T01:49:00;21.13;;;12.43;;
64667;SDS011;51077;42.716;23.344;2024-01-07T01:51:26;18.48;;;11.45;;
64667;SDS011;51077;42.716;23.344;2024-01-07T01:53:51;20.97;;;12.70;;
64667;SDS011;51077;42.716;23.344;2024-01-07T01:56:18;18.67;;;12.25;;
64667;SDS011;51077;42.716;23.344;2024-01-07T01:58:46;19.80;;;12.35;;
64667;SDS011;51077;42.716;23.344;2024-01-07T02:01:12;21.13;;;11.90;;
64667;SDS011;51077;42.716;23.344;2024-01-07T02:03:38;18.00;;;11.40;;
64667;SDS011;51077;42.716;23.344;2024-01-07T02:06:03;19.07;;;11.93;;
64667;SDS011;51077;42.716;23.344;2024-01-07T02:08:29;18.27;;;12.10;;
64667;SDS011;51077;42.716;23.344;2024-01-07T02:10:54;19.90;;;11.30;;
64667;SDS011;51077;42.716;23.344;2024-01-07T02:13:20;21.47;;;12.90;;
64667;SDS011;51077;42.716;23.344;2024-01-07T02:15:46;20.53;;;11.67;;
64667;SDS011;51077;42.716;23.344;2024-01-07T02:18:11;18.00;;;11.10;;
64667;SDS011;51077;42.716;23.344;2024-01-07T02:20:37;19.23;;;11.87;;
64667;SDS011;51077;42.716;23.344;2024-01-07T02:23:03;21.40;;;12.10;;
64667;SDS011;51077;42.716;23.344;2024-01-07T02:25:28;17.38;;;12.27;;
64667;SDS011;51077;42.716;23.344;2024-01-07T02:27:54;24.60;;;13.87;;
64667;SDS011;51077;42.716;23.344;2024-01-07T02:30:19;18.20;;;12.93;;
64667;SDS011;51077;42.716;23.344;2024-01-07T02:32:45;21.00;;;12.43;;
64667;SDS011;51077;42.716;23.344;2024-01-07T02:35:10;20.83;;;13.00;;
64667;SDS011;51077;42.716;23.344;2024-01-07T02:37:35;18.13;;;11.27;;
64667;SDS011;51077;42.716;23.344;2024-01-07T02:40:01;20.23;;;12.73;;
64667;SDS011;51077;42.716;23.344;2024-01-07T02:42:26;20.47;;;12.43;;
64667;SDS011;51077;42.716;23.344;2024-01-07T02:44:52;18.53;;;11.17;;
64667;SDS011;51077;42.716;23.344;2024-01-07T02:47:17;20.87;;;12.07;;
64667;SDS011;51077;42.716;23.344;2024-01-07T02:49:43;20.53;;;12.53;;
64667;SDS011;51077;42.716;23.344;2024-01-07T02:52:08;19.13;;;11.57;;
64667;SDS011;51077;42.716;23.344;2024-01-07T02:54:33;19.43;;;12.33;;
64667;SDS011;51077;42.716;23.344;2024-01-07T02:56:59;20.40;;;12.70;;
64667;SDS011;51077;42.716;23.344;2024-01-07T02:59:24;18.03;;;11.97;;
64667;SDS011;51077;42.716;23.344;2024-01-07T03:01:49;16.73;;;11.43;;
64667;SDS011;51077;42.716;23.344;2024-01-07T03:04:15;18.87;;;12.20;;
64667;SDS011;51077;42.716;23.344;2024-01-07T03:06:41;17.98;;;11.48;;
64667;SDS011;51077;42.716;23.344;2024-01-07T03:09:07;18.37;;;11.27;;
64667;SDS011;51077;42.716;23.344;2024-01-07T03:11:32;20.00;;;11.37;;
64667;SDS011;51077;42.716;23.344;2024-01-07T03:13:58;17.07;;;11.63;;
64667;SDS011;51077;42.716;23.344;2024-01-07T03:16:24;18.03;;;11.70;;
64667;SDS011;51077;42.716;23.344;2024-01-07T03:18:50;14.88;;;11.13;;
64667;SDS011;51077;42.716;23.344;2024-01-07T03:21:20;18.15;;;11.60;;
64667;SDS011;51077;42.716;23.344;2024-01-07T03:23:46;17.52;;;11.00;;
64667;SDS011;51077;42.716;23.344;2024-01-07T03:26:13;16.15;;;10.35;;
64667;SDS011;51077;42.716;23.344;2024-01-07T03:28:39;17.15;;;11.25;;
64667;SDS011;51077;42.716;23.344;2024-01-07T03:31:08;20.13;;;11.63;;
64667;SDS011;51077;42.716;23.344;2024-01-07T03:33:36;16.10;;;11.18;;
64667;SDS011;51077;42.716;23.344;2024-01-07T03:36:06;15.15;;;10.32;;
64667;SDS011;51077;42.716;23.344;2024-01-07T03:38:35;14.77;;;9.88;;
64667;SDS011;51077;42.716;23.344;2024-01-07T03:41:01;14.38;;;10.10;;
64667;SDS011;51077;42.716;23.344;2024-01-07T03:43:27;15.27;;;10.27;;
64667;SDS011;51077;42.716;23.344;2024-01-07T03:45:52;14.57;;;9.50;;
64667;SDS011;51077;42.716;23.344;2024-01-07T03:48:18;14.60;;;9.67;;
64667;SDS011;51077;42.716;23.344;2024-01-07T03:50:43;16.47;;;9.63;;
64667;SDS011;51077;42.716;23.344;2024-01-07T03:53:08;12.53;;;8.87;;
64667;SDS011;51077;42.716;23.344;2024-01-07T03:55:34;13.80;;;8.83;;
64667;SDS011;51077;42.716;23.344;2024-01-07T03:57:59;13.20;;;8.37;;
64667;SDS011;51077;42.716;23.344;2024-01-07T04:00:25;13.00;;;7.87;;
64667;SDS011;51077;42.716;23.344;2024-01-07T04:02:50;11.37;;;7.40;;
64667;SDS011;51077;42.716;23.344;2024-01-07T04:05:15;12.10;;;8.03;;
64667;SDS011;51077;42.716;23.344;2024-01-07T04:07:41;12.83;;;7.80;;
64667;SDS011;51077;42.716;23.344;2024-01-07T04:10:06;12.40;;;7.53;;
64667;SDS011;51077;42.716;23.344;2024-01-07T04:12:32;9.73;;;7.43;;
64667;SDS011;51077;42.716;23.344;2024-01-07T04:14:57;10.20;;;7.53;;
64667;SDS011;51077;42.716;23.344;2024-01-07T04:17:23;10.93;;;7.10;;
64667;SDS011;51077;42.716;23.344;2024-01-07T04:19:49;10.23;;;7.28;;
64667;SDS011;51077;42.716;23.344;2024-01-07T04:22:14;11.50;;;7.57;;
64667;SDS011;51077;42.716;23.344;2024-01-07T04:24:40;13.87;;;7.07;;
64667;SDS011;51077;42.716;23.344;2024-01-07T04:27:06;10.40;;;6.50;;
64667;SDS011;51077;42.716;23.344;2024-01-07T04:29:32;11.63;;;6.70;;
64667;SDS011;51077;42.716;23.344;2024-01-07T04:31:57;11.37;;;6.93;;
64667;SDS011;51077;42.716;23.344;2024-01-07T04:34:23;10.43;;;6.37;;
64667;SDS011;51077;42.716;23.344;2024-01-07T04:36:49;11.20;;;6.72;;
64667;SDS011;51077;42.716;23.344;2024-01-07T04:39:15;9.67;;;6.20;;
64667;SDS011;51077;42.716;23.344;2024-01-07T04:41:40;9.50;;;5.97;;
64667;SDS011;51077;42.716;23.344;2024-01-07T04:44:06;8.77;;;5.83;;
64667;SDS011;51077;42.716;23.344;2024-01-07T04:46:35;9.50;;;5.50;;
64667;SDS011;51077;42.716;23.344;2024-01-07T04:49:04;10.32;;;5.97;;
64667;SDS011;51077;42.716;23.344;2024-01-07T04:51:30;8.60;;;6.18;;
64667;SDS011;51077;42.716;23.344;2024-01-07T04:53:56;11.13;;;6.30;;
64667;SDS011;51077;42.716;23.344;2024-01-07T04:56:21;10.33;;;6.13;;
64667;SDS011;51077;42.716;23.344;2024-01-07T04:58:47;10.43;;;6.27;;
64667;SDS011;51077;42.716;23.344;2024-01-07T05:01:14;9.10;;;6.32;;
64667;SDS011;51077;42.716;23.344;2024-01-07T05:03:39;10.30;;;6.33;;
64667;SDS011;51077;42.716;23.344;2024-01-07T05:06:05;10.13;;;6.60;;
64667;SDS011;51077;42.716;23.344;2024-01-07T05:08:33;10.23;;;6.30;;
64667;SDS011;51077;42.716;23.344;2024-01-07T05:10:58;11.63;;;7.60;;
64667;SDS011;51077;42.716;23.344;2024-01-07T05:13:24;10.07;;;6.20;;
64667;SDS011;51077;42.716;23.344;2024-01-07T05:15:49;11.57;;;7.03;;
64667;SDS011;51077;42.716;23.344;2024-01-07T05:18:24;9.98;;;6.60;;
64667;SDS011;51077;42.716;23.344;2024-01-07T05:20:51;9.77;;;6.70;;
64667;SDS011;51077;42.716;23.344;2024-01-07T05:23:17;10.90;;;7.47;;
64667;SDS011;51077;42.716;23.344;2024-01-07T05:25:43;10.40;;;6.80;;
64667;SDS011;51077;42.716;23.344;2024-01-07T05:28:09;14.63;;;6.88;;
64667;SDS011;51077;42.716;23.344;2024-01-07T05:30:35;13.25;;;6.60;;
64667;SDS011;51077;42.716;23.344;2024-01-07T05:33:01;9.87;;;5.90;;
64667;SDS011;51077;42.716;23.344;2024-01-07T05:35:26;9.20;;;6.10;;
64667;SDS011;51077;42.716;23.344;2024-01-07T05:37:51;11.07;;;7.23;;
64667;SDS011;51077;42.716;23.344;2024-01-07T05:40:17;14.20;;;6.47;;
64667;SDS011;51077;42.716;23.344;2024-01-07T05:42:42;9.70;;;5.67;;
64667;SDS011;51077;42.716;23.344;2024-01-07T05:45:08;10.37;;;6.23;;
64667;SDS011;51077;42.716;23.344;2024-01-07T05:47:33;9.73;;;6.57;;
64667;SDS011;51077;42.716;23.344;2024-01-07T05:49:59;10.83;;;6.60;;
64667;SDS011;51077;42.716;23.344;2024-01-07T05:52:24;10.57;;;6.53;;
64667;SDS011;51077;42.716;23.344;2024-01-07T05:54:50;10.80;;;6.30;;
64667;SDS011;51077;42.716;23.344;2024-01-07T05:57:15;12.07;;;6.13;;
64667;SDS011;51077;42.716;23.344;2024-01-07T05:59:40;11.43;;;6.60;;
64667;SDS011;51077;42.716;23.344;2024-01-07T06:02:06;11.00;;;6.53;;
64667;SDS011;51077;42.716;23.344;2024-01-07T06:04:31;10.53;;;6.20;;
64667;SDS011;51077;42.716;23.344;2024-01-07T06:06:56;9.30;;;5.87;;
64667;SDS011;51077;42.716;23.344;2024-01-07T06:09:23;12.63;;;6.40;;
64667;SDS011;51077;42.716;23.344;2024-01-07T06:11:49;8.73;;;6.03;;
64667;SDS011;51077;42.716;23.344;2024-01-07T06:14:15;11.33;;;7.53;;
64667;SDS011;51077;42.716;23.344;2024-01-07T06:16:40;10.70;;;6.73;;
64667;SDS011;51077;42.716;23.344;2024-01-07T06:19:07;10.45;;;7.72;;
64667;SDS011;51077;42.716;23.344;2024-01-07T06:21:32;10.90;;;6.53;;
64667;SDS011;51077;42.716;23.344;2024-01-07T06:23:58;11.63;;;7.20;;
64667;SDS011;51077;42.716;23.344;2024-01-07T06:26:23;10.40;;;6.67;;
64667;SDS011;51077;42.716;23.344;2024-01-07T06:28:49;12.90;;;7.67;;
64667;SDS011;51077;42.716;23.344;2024-01-07T06:31:15;11.55;;;7.55;;
64667;SDS011;51077;42.716;23.344;2024-01-07T06:33:40;12.97;;;7.93;;
64667;SDS011;51077;42.716;23.344;2024-01-07T06:36:06;12.20;;;8.87;;
64667;SDS011;51077;42.716;23.344;2024-01-07T06:38:31;12.80;;;8.37;;
64667;SDS011;51077;42.716;23.344;2024-01-07T06:40:56;12.67;;;8.87;;
64667;SDS011;51077;42.716;23.344;2024-01-07T06:43:26;14.73;;;9.52;;
64667;SDS011;51077;42.716;23.344;2024-01-07T06:45:55;15.35;;;9.52;;
64667;SDS011;51077;42.716;23.344;2024-01-07T06:48:20;13.70;;;8.48;;
64667;SDS011;51077;42.716;23.344;2024-01-07T06:50:46;13.87;;;8.40;;
64667;SDS011;51077;42.716;23.344;2024-01-07T06:53:11;17.27;;;10.03;;
64667;SDS011;51077;42.716;23.344;2024-01-07T06:55:36;18.33;;;10.60;;
64667;SDS011;51077;42.716;23.344;2024-01-07T06:58:02;19.10;;;10.20;;
64667;SDS011;51077;42.716;23.344;2024-01-07T07:00:28;15.57;;;9.17;;
64667;SDS011;51077;42.716;23.344;2024-01-07T07:02:53;17.63;;;10.23;;
64667;SDS011;51077;42.716;23.344;2024-01-07T07:05:18;16.90;;;10.07;;
64667;SDS011;51077;42.716;23.344;2024-01-07T07:07:44;17.13;;;9.93;;
64667;SDS011;51077;42.716;23.344;2024-01-07T07:10:10;16.83;;;9.50;;
64667;SDS011;51077;42.716;23.344;2024-01-07T07:12:36;14.87;;;9.97;;
64667;SDS011;51077;42.716;23.344;2024-01-07T07:15:01;16.57;;;9.77;;
64667;SDS011;51077;42.716;23.344;2024-01-07T07:17:27;12.00;;;8.37;;
64667;SDS011;51077;42.716;23.344;2024-01-07T07:19:52;14.73;;;8.27;;
64667;SDS011;51077;42.716;23.344;2024-01-07T07:22:18;15.10;;;8.97;;
64667;SDS011;51077;42.716;23.344;2024-01-07T07:24:43;12.70;;;8.77;;
64667;SDS011;51077;42.716;23.344;2024-01-07T07:27:09;11.27;;;8.10;;
64667;SDS011;51077;42.716;23.344;2024-01-07T07:29:34;12.87;;;7.70;;
64667;SDS011;51077;42.716;23.344;2024-01-07T07:32:00;15.90;;;8.43;;
64667;SDS011;51077;42.716;23.344;2024-01-07T07:34:25;11.90;;;7.80;;
64667;SDS011;51077;42.716;23.344;2024-01-07T07:36:50;11.83;;;7.77;;
64667;SDS011;51077;42.716;23.344;2024-01-07T07:39:16;12.77;;;7.90;;
64667;SDS011;51077;42.716;23.344;2024-01-07T07:41:42;12.43;;;7.77;;
64667;SDS011;51077;42.716;23.344;2024-01-07T07:44:07;12.37;;;7.70;;
64667;SDS011;51077;42.716;23.344;2024-01-07T07:46:33;11.07;;;7.47;;
64667;SDS011;51077;42.716;23.344;2024-01-07T07:48:58;14.97;;;9.03;;
64667;SDS011;51077;42.716;23.344;2024-01-07T07:51:26;12.05;;;7.93;;
64667;SDS011;51077;42.716;23.344;2024-01-07T07:53:51;11.53;;;7.43;;
64667;SDS011;51077;42.716;23.344;2024-01-07T07:56:17;13.67;;;8.60;;
64667;SDS011;51077;42.716;23.344;2024-01-07T07:58:42;13.73;;;8.00;;
64667;SDS011;51077;42.716;23.344;2024-01-07T08:01:07;12.03;;;8.03;;
64667;SDS011;51077;42.716;23.344;2024-01-07T08:03:33;15.00;;;9.23;;
64667;SDS011;51077;42.716;23.344;2024-01-07T08:05:58;16.00;;;8.50;;
64667;SDS011;51077;42.716;23.344;2024-01-07T08:08:24;13.90;;;8.43;;
64667;SDS011;51077;42.716;23.344;2024-01-07T08:10:49;14.67;;;8.70;;
64667;SDS011;51077;42.716;23.344;2024-01-07T08:13:15;9.40;;;6.37;;
64667;SDS011;51077;42.716;23.344;2024-01-07T08:15:41;8.68;;;6.80;;
64667;SDS011;51077;42.716;23.344;2024-01-07T08:18:06;10.83;;;7.17;;
64667;SDS011;51077;42.716;23.344;2024-01-07T08:20:31;11.73;;;7.90;;
64667;SDS011;51077;42.716;23.344;2024-01-07T08:22:57;11.17;;;7.53;;
64667;SDS011;51077;42.716;23.344;2024-01-07T08:25:22;11.37;;;8.43;;
64667;SDS011;51077;42.716;23.344;2024-01-07T08:27:48;11.43;;;8.57;;
64667;SDS011;51077;42.716;23.344;2024-01-07T08:30:14;13.43;;;8.52;;
64667;SDS011;51077;42.716;23.344;2024-01-07T08:32:40;11.77;;;8.93;;
64667;SDS011;51077;42.716;23.344;2024-01-07T08:35:06;10.95;;;8.20;;
64667;SDS011;51077;42.716;23.344;2024-01-07T08:37:31;12.47;;;9.33;;
64667;SDS011;51077;42.716;23.344;2024-01-07T08:39:57;13.20;;;9.68;;
64667;SDS011;51077;42.716;23.344;2024-01-07T08:42:23;13.87;;;9.17;;
64667;SDS011;51077;42.716;23.344;2024-01-07T08:44:49;13.32;;;9.38;;
64667;SDS011;51077;42.716;23.344;2024-01-07T08:47:15;17.13;;;9.07;;
64667;SDS011;51077;42.716;23.344;2024-01-07T08:49:40;14.87;;;9.70;;
64667;SDS011;51077;42.716;23.344;2024-01-07T08:52:06;12.97;;;9.13;;
64667;SDS011;51077;42.716;23.344;2024-01-07T08:54:31;13.73;;;9.27;;
64667;SDS011;51077;42.716;23.344;2024-01-07T08:56:58;13.15;;;10.63;;
64667;SDS011;51077;42.716;23.344;2024-01-07T08:59:23;15.40;;;11.53;;
64667;SDS011;51077;42.716;23.344;2024-01-07T09:01:49;14.60;;;10.20;;
64667;SDS011;51077;42.716;23.344;2024-01-07T09:04:15;13.93;;;9.97;;
64667;SDS011;51077;42.716;23.344;2024-01-07T09:06:43;14.13;;;10.27;;
64667;SDS011;51077;42.716;23.344;2024-01-07T09:09:09;13.43;;;10.18;;
64667;SDS011;51077;42.716;23.344;2024-01-07T09:11:34;15.47;;;10.27;;
64667;SDS011;51077;42.716;23.344;2024-01-07T09:14:01;11.77;;;9.10;;
64667;SDS011;51077;42.716;23.344;2024-01-07T09:16:27;11.60;;;9.50;;
64667;SDS011;51077;42.716;23.344;2024-01-07T09:18:52;13.17;;;9.93;;
64667;SDS011;51077;42.716;23.344;2024-01-07T09:21:18;15.17;;;10.07;;
64667;SDS011;51077;42.716;23.344;2024-01-07T09:23:44;13.07;;;9.50;;
64667;SDS011;51077;42.716;23.344;2024-01-07T09:26:09;12.40;;;9.45;;
64667;SDS011;51077;42.716;23.344;2024-01-07T09:28:35;12.00;;;9.50;;
64667;SDS011;51077;42.716;23.344;2024-01-07T09:31:00;12.97;;;9.17;;
64667;SDS011;51077;42.716;23.344;2024-01-07T09:33:25;13.83;;;10.23;;
64667;SDS011;51077;42.716;23.344;2024-01-07T09:35:51;16.00;;;10.13;;
64667;SDS011;51077;42.716;23.344;2024-01-07T09:38:16;13.13;;;9.53;;
64667;SDS011;51077;42.716;23.344;2024-01-07T09:40:42;14.47;;;10.23;;
64667;SDS011;51077;42.716;23.344;2024-01-07T09:43:07;12.97;;;9.10;;
64667;SDS011;51077;42.716;23.344;2024-01-07T09:45:34;13.20;;;9.37;;
64667;SDS011;51077;42.716;23.344;2024-01-07T09:48:01;13.07;;;8.75;;
64667;SDS011;51077;42.716;23.344;2024-01-07T09:50:27;12.77;;;9.20;;
64667;SDS011;51077;42.716;23.344;2024-01-07T09:52:52;10.90;;;8.50;;
64667;SDS011;51077;42.716;23.344;2024-01-07T09:55:26;11.93;;;8.15;;
64667;SDS011;51077;42.716;23.344;2024-01-07T09:57:54;13.45;;;8.60;;
64667;SDS011;51077;42.716;23.344;2024-01-07T10:00:20;11.30;;;7.60;;
64667;SDS011;51077;42.716;23.344;2024-01-07T10:02:45;10.17;;;7.03;;
64667;SDS011;51077;42.716;23.344;2024-01-07T10:05:11;11.33;;;7.60;;
64667;SDS011;51077;42.716;23.344;2024-01-07T10:07:36;10.07;;;7.27;;
64667;SDS011;51077;42.716;23.344;2024-01-07T10:12:45;10.57;;;6.38;;
64667;SDS011;51077;42.716;23.344;2024-01-07T10:15:12;9.65;;;6.03;;
64667;SDS011;51077;42.716;23.344;2024-01-07T10:17:39;9.55;;;6.70;;
64667;SDS011;51077;42.716;23.344;2024-01-07T10:20:07;11.07;;;7.07;;
64667;SDS011;51077;42.716;23.344;2024-01-07T10:22:36;9.20;;;6.57;;
64667;SDS011;51077;42.716;23.344;2024-01-07T10:25:05;9.43;;;6.97;;
64667;SDS011;51077;42.716;23.344;2024-01-07T10:27:35;11.80;;;6.82;;
64667;SDS011;51077;42.716;23.344;2024-01-07T10:30:01;11.07;;;7.15;;
64667;SDS011;51077;42.716;23.344;2024-01-07T10:32:28;9.23;;;7.13;;
64667;SDS011;51077;42.716;23.344;2024-01-07T10:34:55;8.68;;;7.05;;
64667;SDS011;51077;42.716;23.344;2024-01-07T10:37:26;10.10;;;7.60;;
64667;SDS011;51077;42.716;23.344;2024-01-07T10:39:52;9.73;;;7.40;;
64667;SDS011;51077;42.716;23.344;2024-01-07T10:42:21;12.13;;;8.55;;
64667;SDS011;51077;42.716;23.344;2024-01-07T10:44:47;11.70;;;8.87;;
64667;SDS011;51077;42.716;23.344;2024-01-07T10:47:13;13.17;;;9.10;;
64667;SDS011;51077;42.716;23.344;2024-01-07T10:49:40;12.20;;;9.43;;
64667;SDS011;51077;42.716;23.344;2024-01-07T10:52:09;14.25;;;11.25;;
64667;SDS011;51077;42.716;23.344;2024-01-07T10:54:36;15.18;;;11.18;;
64667;SDS011;51077;42.716;23.344;2024-01-07T10:57:24;13.13;;;11.20;;
64667;SDS011;51077;42.716;23.344;2024-01-07T10:59:57;14.05;;;10.82;;
64667;SDS011;51077;42.716;23.344;2024-01-07T11:02:25;13.88;;;11.82;;
64667;SDS011;51077;42.716;23.344;2024-01-07T11:04:53;15.18;;;10.88;;
64667;SDS011;51077;42.716;23.344;2024-01-07T11:10:05;14.48;;;10.13;;
64667;SDS011;51077;42.716;23.344;2024-01-07T11:12:38;12.32;;;9.25;;
64667;SDS011;51077;42.716;23.344;2024-01-07T11:15:04;13.40;;;9.40;;
64667;SDS011;51077;42.716;23.344;2024-01-07T11:20:02;10.27;;;8.35;;
64667;SDS011;51077;42.716;23.344;2024-01-07T11:22:31;10.40;;;7.75;;
64667;SDS011;51077;42.716;23.344;2024-01-07T11:24:59;10.53;;;7.37;;
64667;SDS011;51077;42.716;23.344;2024-01-07T11:27:29;9.48;;;7.40;;
64667;SDS011;51077;42.716;23.344;2024-01-07T11:32:45;8.18;;;6.32;;
64667;SDS011;51077;42.716;23.344;2024-01-07T11:35:12;9.17;;;6.50;;
64667;SDS011;51077;42.716;23.344;2024-01-07T11:37:38;9.88;;;6.15;;
64667;SDS011;51077;42.716;23.344;2024-01-07T11:40:03;9.40;;;6.40;;
64667;SDS011;51077;42.716;23.344;2024-01-07T11:42:31;8.85;;;6.15;;
64667;SDS011;51077;42.716;23.344;2024-01-07T11:44:57;8.10;;;6.20;;
64667;SDS011;51077;42.716;23.344;2024-01-07T11:47:23;11.60;;;6.00;;
64667;SDS011;51077;42.716;23.344;2024-01-07T11:49:49;10.15;;;6.03;;
64667;SDS011;51077;42.716;23.344;2024-01-07T11:52:15;8.73;;;5.73;;
64667;SDS011;51077;42.716;23.344;2024-01-07T11:54:40;7.53;;;5.10;;
64667;SDS011;51077;42.716;23.344;2024-01-07T11:57:07;7.20;;;5.45;;
64667;SDS011;51077;42.716;23.344;2024-01-07T11:59:33;6.57;;;4.40;;
64667;SDS011;51077;42.716;23.344;2024-01-07T12:02:00;8.57;;;5.32;;
64667;SDS011;51077;42.716;23.344;2024-01-07T12:04:26;7.90;;;4.95;;
64667;SDS011;51077;42.716;23.344;2024-01-07T12:06:53;7.05;;;4.85;;
64667;SDS011;51077;42.716;23.344;2024-01-07T12:09:18;7.73;;;4.47;;
64667;SDS011;51077;42.716;23.344;2024-01-07T12:11:44;7.53;;;4.17;;
64667;SDS011;51077;42.716;23.344;2024-01-07T12:14:09;8.47;;;4.33;;
64667;SDS011;51077;42.716;23.344;2024-01-07T12:16:36;8.75;;;4.13;;
64667;SDS011;51077;42.716;23.344;2024-01-07T12:19:02;9.07;;;4.20;;
64667;SDS011;51077;42.716;23.344;2024-01-07T12:21:27;10.70;;;4.03;;
64667;SDS011;51077;42.716;23.344;2024-01-07T12:23:54;4.65;;;3.25;;
64667;SDS011;51077;42.716;23.344;2024-01-07T12:26:25;6.18;;;3.00;;
64667;SDS011;51077;42.716;23.344;2024-01-07T12:28:52;5.47;;;2.95;;
64667;SDS011;51077;42.716;23.344;2024-01-07T12:31:22;5.65;;;2.83;;
64667;SDS011;51077;42.716;23.344;2024-01-07T12:33:51;5.20;;;2.85;;
64667;SDS011;51077;42.716;23.344;2024-01-07T12:36:21;5.40;;;3.10;;
64667;SDS011;51077;42.716;23.344;2024-01-07T12:38:47;5.68;;;2.78;;
64667;SDS011;51077;42.716;23.344;2024-01-07T12:41:13;6.03;;;2.90;;
64667;SDS011;51077;42.716;23.344;2024-01-07T12:43:39;5.60;;;2.77;;
64667;SDS011;51077;42.716;23.344;2024-01-07T12:46:04;5.73;;;2.80;;
64667;SDS011;51077;42.716;23.344;2024-01-07T12:48:30;5.43;;;2.70;;
64667;SDS011;51077;42.716;23.344;2024-01-07T12:50:57;7.15;;;2.50;;
64667;SDS011;51077;42.716;23.344;2024-01-07T12:53:23;4.85;;;2.50;;
64667;SDS011;51077;42.716;23.344;2024-01-07T12:55:48;4.20;;;2.60;;
64667;SDS011;51077;42.716;23.344;2024-01-07T12:58:14;6.67;;;2.53;;
64667;SDS011;51077;42.716;23.344;2024-01-07T13:00:40;5.23;;;2.60;;
64667;SDS011;51077;42.716;23.344;2024-01-07T13:03:05;6.57;;;2.53;;
64667;SDS011;51077;42.716;23.344;2024-01-07T13:05:33;4.82;;;2.60;;
64667;SDS011;51077;42.716;23.344;2024-01-07T13:07:59;5.20;;;2.53;;
64667;SDS011;51077;42.716;23.344;2024-01-07T13:10:25;5.90;;;2.63;;
64667;SDS011;51077;42.716;23.344;2024-01-07T13:12:50;5.83;;;2.60;;
64667;SDS011;51077;42.716;23.344;2024-01-07T13:15:16;5.47;;;3.20;;
64667;SDS011;51077;42.716;23.344;2024-01-07T13:17:42;8.13;;;2.97;;
64667;SDS011;51077;42.716;23.344;2024-01-07T13:20:07;6.95;;;2.53;;
64667;SDS011;51077;42.716;23.344;2024-01-07T13:22:37;4.75;;;2.63;;
64667;SDS011;51077;42.716;23.344;2024-01-07T13:25:04;4.15;;;2.47;;
64667;SDS011;51077;42.716;23.344;2024-01-07T13:27:30;6.45;;;2.92;;
64667;SDS011;51077;42.716;23.344;2024-01-07T13:29:55;6.63;;;2.47;;
64667;SDS011;51077;42.716;23.344;2024-01-07T13:32:21;4.82;;;2.85;;
64667;SDS011;51077;42.716;23.344;2024-01-07T13:34:47;6.67;;;2.90;;
64667;SDS011;51077;42.716;23.344;2024-01-07T13:37:13;5.25;;;2.75;;
64667;SDS011;51077;42.716;23.344;2024-01-07T13:39:38;5.33;;;2.60;;
64667;SDS011;51077;42.716;23.344;2024-01-07T13:42:04;4.93;;;3.03;;
64667;SDS011;51077;42.716;23.344;2024-01-07T13:44:30;5.90;;;2.90;;
64667;SDS011;51077;42.716;23.344;2024-01-07T13:46:56;4.43;;;2.77;;
64667;SDS011;51077;42.716;23.344;2024-01-07T13:49:21;6.33;;;2.80;;
64667;SDS011;51077;42.716;23.344;2024-01-07T13:51:46;5.43;;;2.87;;
64667;SDS011;51077;42.716;23.344;2024-01-07T13:54:12;7.53;;;2.97;;
64667;SDS011;51077;42.716;23.344;2024-01-07T13:56:40;5.70;;;2.85;;
64667;SDS011;51077;42.716;23.344;2024-01-07T13:59:09;10.07;;;3.65;;
64667;SDS011;51077;42.716;23.344;2024-01-07T14:01:35;6.78;;;3.33;;
64667;SDS011;51077;42.716;23.344;2024-01-07T14:04:01;5.53;;;3.40;;
64667;SDS011;51077;42.716;23.344;2024-01-07T14:06:26;7.07;;;3.30;;
64667;SDS011;51077;42.716;23.344;2024-01-07T14:08:52;4.37;;;2.97;;
64667;SDS011;51077;42.716;23.344;2024-01-07T14:11:18;12.90;;;5.38;;
64667;SDS011;51077;42.716;23.344;2024-01-07T14:13:44;9.20;;;5.63;;
64667;SDS011;51077;42.716;23.344;2024-01-07T14:16:11;10.32;;;4.70;;
64667;SDS011;51077;42.716;23.344;2024-01-07T14:18:37;9.33;;;5.43;;
64667;SDS011;51077;42.716;23.344;2024-01-07T14:21:02;8.50;;;4.87;;
64667;SDS011;51077;42.716;23.344;2024-01-07T14:23:28;10.73;;;5.67;;
64667;SDS011;51077;42.716;23.344;2024-01-07T14:25:56;10.65;;;5.93;;